Time;durP1;ratioP1;P1;durP2;ratioP2;P2;SDS_P1;SDS_P2;PMS_P1;PMS_P2;Temp;Humidity;BMP_temperature;BMP_pressure;BME280_temperature;BME280_humidity;BME280_pressure;Samples;Min_cycle;Max_cycle;Signal;HPM_P1;HPM_P2
2023/07/10 00:00:15;;;;;;;41.33;37.38;;;19.50;99.90;;;;;;5030271;28;20057;-60
2023/07/10 00:02:41;;;;;;;40.80;37.00;;;21.20;99.90;;;;;;5030504;28;20045;-60
2023/07/10 00:05:18;;;;;;;41.05;36.92;;;21.40;99.90;;;;;;5030033;28;20045;-60
2023/07/10 00:07:44;;;;;;;39.75;35.47;;;20.30;99.90;;;;;;5030427;28;20045;-60
2023/07/10 00:10:11;;;;;;;40.47;36.53;;;21.30;99.90;;;;;;5024761;28;20562;-58
2023/07/10 00:12:38;;;;;;;41.40;37.05;;;20.30;99.90;;;;;;5021059;28;20049;-59
2023/07/10 00:15:21;;;;;;;37.88;34.60;;;19.70;99.90;;;;;;5045362;28;20033;-59
2023/07/10 00:17:50;;;;;;;38.28;34.90;;;19.50;99.90;;;;;;5030245;28;20049;-59
2023/07/10 00:20:19;;;;;;;39.97;36.05;;;19.60;99.90;;;;;;5030122;28;20102;-59
2023/07/10 00:22:45;;;;;;;39.80;36.17;;;21.40;99.90;;;;;;5029908;28;20073;-59
2023/07/10 00:25:15;;;;;;;38.20;35.00;;;20.10;99.90;;;;;;5029804;28;20084;-59
2023/07/10 00:27:42;;;;;;;37.17;33.80;;;21.00;99.90;;;;;;5029913;28;20037;-59
2023/07/10 00:30:15;;;;;;;37.45;34.35;;;20.80;99.90;;;;;;5030004;28;20522;-59
2023/07/10 00:32:41;;;;;;;38.35;35.05;;;20.80;99.90;;;;;;5029897;28;20084;-59
2023/07/10 00:35:07;;;;;;;38.30;34.92;;;20.80;99.90;;;;;;5029884;28;20076;-59
2023/07/10 00:37:33;;;;;;;36.75;33.75;;;19.80;99.90;;;;;;5044698;28;20532;-58
2023/07/10 00:39:59;;;;;;;38.38;35.08;;;20.80;99.90;;;;;;5029952;28;20514;-59
2023/07/10 00:42:26;;;;;;;38.00;34.70;;;20.40;99.90;;;;;;5029852;28;20098;-59
2023/07/10 00:44:56;;;;;;;38.03;34.70;;;20.50;99.90;;;;;;5029485;28;20174;-59
2023/07/10 00:47:25;;;;;;;38.63;35.20;;;20.60;99.90;;;;;;5032924;28;20120;-59
2023/07/10 00:50:08;;;;;;;39.85;36.30;;;20.00;99.90;;;;;;5033669;28;20037;-58
2023/07/10 00:52:47;;;;;;;39.40;36.00;;;20.30;99.90;;;;;;5034224;28;20052;-59
2023/07/10 00:55:21;;;;;;;34.78;31.67;;;19.90;99.90;;;;;;5033779;28;20052;-59
2023/07/10 00:57:52;;;;;;;34.60;31.67;;;20.50;99.90;;;;;;5033771;28;20047;-58
2023/07/10 01:00:21;;;;;;;35.72;32.70;;;19.90;99.90;;;;;;5065729;28;20046;-59
2023/07/10 01:02:47;;;;;;;34.55;31.15;;;20.30;99.90;;;;;;5033775;28;20048;-58
2023/07/10 01:05:14;;;;;;;36.03;32.92;;;19.80;99.90;;;;;;5033731;28;20041;-59
2023/07/10 01:07:47;;;;;;;33.75;30.90;;;20.20;99.90;;;;;;5049058;28;20045;-58
2023/07/10 01:10:13;;;;;;;34.25;31.48;;;20.20;99.90;;;;;;5027350;28;20046;-59
2023/07/10 01:12:42;;;;;;;33.25;30.45;;;19.90;99.90;;;;;;5024747;28;20041;-59
2023/07/10 01:15:09;;;;;;;33.50;30.58;;;19.80;99.90;;;;;;5033604;28;20037;-59
2023/07/10 01:17:35;;;;;;;32.88;30.17;;;19.90;99.90;;;;;;5033644;28;20037;-59
2023/07/10 01:20:22;;;;;;;33.90;31.08;;;19.80;99.90;;;;;;5033252;28;20146;-59
2023/07/10 01:22:47;;;;;;;34.25;31.45;;;19.90;99.90;;;;;;5033072;28;20045;-59
2023/07/10 01:25:13;;;;;;;32.38;29.60;;;19.80;99.90;;;;;;5033144;28;20524;-59
2023/07/10 01:27:39;;;;;;;32.75;29.90;;;19.80;99.90;;;;;;5033281;28;20049;-59
2023/07/10 01:30:17;;;;;;;33.65;30.88;;;19.90;99.90;;;;;;5033221;28;20041;-59
2023/07/10 01:32:42;;;;;;;35.65;32.63;;;19.80;99.90;;;;;;5033297;28;20080;-58
2023/07/10 01:35:12;;;;;;;32.88;30.25;;;19.90;99.90;;;;;;5032907;28;20115;-59
2023/07/10 01:37:38;;;;;;;35.20;32.30;;;21.20;99.90;;;;;;5033343;28;20167;-59
2023/07/10 01:40:04;;;;;;;34.95;31.90;;;20.00;99.90;;;;;;5033217;28;20049;-59
2023/07/10 01:42:30;;;;;;;35.80;32.72;;;19.70;99.90;;;;;;5032994;28;20060;-59
2023/07/10 01:44:56;;;;;;;35.28;32.20;;;19.70;99.90;;;;;;5032908;28;20053;-59
2023/07/10 01:47:21;;;;;;;34.65;31.75;;;20.00;99.90;;;;;;5032868;28;20044;-58
2023/07/10 01:49:53;;;;;;;34.95;31.95;;;19.80;99.90;;;;;;5032623;28;20030;-58
2023/07/10 01:52:21;;;;;;;34.63;31.63;;;20.00;99.90;;;;;;5065056;28;20446;-58
2023/07/10 01:54:47;;;;;;;35.22;32.22;;;19.80;99.90;;;;;;5033033;28;20522;-59
2023/07/10 01:57:14;;;;;;;35.22;32.25;;;19.90;99.90;;;;;;5047922;28;20045;-58
2023/07/10 01:59:40;;;;;;;36.63;33.35;;;19.50;99.90;;;;;;5031950;28;20041;-58
2023/07/10 02:02:06;;;;;;;36.72;33.53;;;19.50;99.90;;;;;;5032604;28;20180;-58
2023/07/10 02:04:32;;;;;;;35.55;32.33;;;20.20;99.90;;;;;;5032330;28;20038;-58
2023/07/10 02:06:57;;;;;;;35.22;32.28;;;19.40;99.90;;;;;;5032615;28;20033;-58
2023/07/10 02:09:28;;;;;;;37.60;34.30;;;19.40;99.90;;;;;;5032492;28;20049;-59
2023/07/10 02:11:54;;;;;;;37.70;34.30;;;19.50;99.90;;;;;;5017447;28;20049;-59
2023/07/10 02:14:20;;;;;;;37.10;33.70;;;19.40;99.90;;;;;;5047432;28;20037;-58
2023/07/10 02:16:47;;;;;;;36.17;33.08;;;19.60;99.90;;;;;;5032317;28;20045;-58
2023/07/10 02:19:13;;;;;;;38.00;34.60;;;19.30;99.90;;;;;;5032239;28;20392;-58
2023/07/10 02:21:38;;;;;;;38.00;34.70;;;19.40;99.90;;;;;;5031950;28;20111;-58
2023/07/10 02:24:05;;;;;;;37.78;34.38;;;19.40;99.90;;;;;;5032257;28;20037;-58
2023/07/10 02:26:30;;;;;;;38.95;35.35;;;19.30;99.90;;;;;;5032139;28;20380;-58
2023/07/10 02:28:57;;;;;;;38.20;34.75;;;19.40;99.90;;;;;;5032124;28;20381;-58
2023/07/10 02:31:24;;;;;;;37.95;34.22;;;19.30;99.90;;;;;;5047443;28;20168;-58
2023/07/10 02:33:49;;;;;;;37.55;34.25;;;20.00;99.90;;;;;;5031989;28;20558;-58
2023/07/10 02:36:15;;;;;;;38.10;34.78;;;19.80;99.90;;;;;;5032013;28;20136;-58
2023/07/10 02:38:41;;;;;;;38.05;34.60;;;19.80;99.90;;;;;;5032043;28;20040;-58
2023/07/10 02:41:07;;;;;;;38.20;34.92;;;19.80;99.90;;;;;;5031890;28;20034;-58
2023/07/10 02:43:33;;;;;;;36.95;33.63;;;19.40;99.90;;;;;;5031658;28;20053;-58
2023/07/10 02:45:59;;;;;;;37.17;33.88;;;19.70;99.90;;;;;;5031560;28;20068;-59
2023/07/10 02:48:24;;;;;;;38.25;34.95;;;19.60;99.90;;;;;;5031664;28;20034;-58
2023/07/10 02:50:50;;;;;;;37.55;34.35;;;19.80;99.90;;;;;;5031719;28;20442;-58
2023/07/10 02:53:15;;;;;;;37.55;34.05;;;19.60;99.90;;;;;;5031777;28;20447;-58
2023/07/10 02:55:41;;;;;;;36.75;33.47;;;19.60;99.90;;;;;;5031561;28;20438;-58
2023/07/10 02:58:07;;;;;;;36.13;32.92;;;19.90;99.90;;;;;;5031593;28;20408;-58
2023/07/10 03:00:33;;;;;;;36.42;33.22;;;19.60;99.90;;;;;;5031460;28;20099;-58
2023/07/10 03:02:59;;;;;;;36.40;33.10;;;19.90;99.90;;;;;;5031325;28;20507;-58
2023/07/10 03:05:25;;;;;;;37.03;33.40;;;20.00;99.90;;;;;;5031423;28;20035;-58
2023/07/10 03:07:51;;;;;;;35.63;32.38;;;19.70;99.90;;;;;;5028769;28;20264;-58
2023/07/10 03:10:18;;;;;;;35.15;32.15;;;20.00;99.90;;;;;;5020914;28;20533;-58
2023/07/10 03:12:44;;;;;;;36.97;33.53;;;19.80;99.90;;;;;;5031120;28;20046;-59
2023/07/10 03:15:10;;;;;;;36.95;33.63;;;19.80;99.90;;;;;;5031201;28;20060;-59
2023/07/10 03:17:40;;;;;;;36.38;33.03;;;20.00;99.90;;;;;;5030928;28;20045;-58
2023/07/10 03:20:06;;;;;;;36.97;33.70;;;19.80;99.90;;;;;;5031296;28;20554;-58
2023/07/10 03:22:32;;;;;;;38.35;34.83;;;20.10;99.90;;;;;;5030954;28;20050;-58
2023/07/10 03:24:57;;;;;;;38.17;34.58;;;19.80;99.90;;;;;;5030397;28;20488;-58
2023/07/10 03:27:24;;;;;;;37.72;34.22;;;20.10;99.90;;;;;;5029550;28;20043;-58
2023/07/10 03:29:50;;;;;;;39.97;36.00;;;20.00;99.90;;;;;;5042147;28;20044;-58
2023/07/10 03:32:15;;;;;;;39.88;36.05;;;20.00;99.90;;;;;;5030825;28;20033;-58
2023/07/10 03:34:41;;;;;;;40.92;36.75;;;20.10;99.90;;;;;;5031219;28;20445;-58
2023/07/10 03:37:07;;;;;;;40.92;36.58;;;20.00;99.90;;;;;;5030926;28;20131;-59
2023/07/10 03:39:33;;;;;;;40.60;36.40;;;20.10;99.90;;;;;;5030969;28;20041;-58
2023/07/10 03:41:59;;;;;;;39.97;35.63;;;20.10;99.90;;;;;;5030780;28;20041;-60
2023/07/10 03:44:25;;;;;;;39.25;35.45;;;20.10;99.90;;;;;;5031013;28;20412;-58
2023/07/10 03:46:50;;;;;;;40.63;36.35;;;19.80;99.90;;;;;;5030589;28;20038;-58
2023/07/10 03:49:16;;;;;;;40.67;36.42;;;19.70;99.90;;;;;;5031225;28;20087;-58
2023/07/10 03:51:42;;;;;;;41.15;36.78;;;19.80;99.90;;;;;;5030744;28;20033;-58
2023/07/10 03:54:07;;;;;;;40.63;36.33;;;20.00;99.90;;;;;;5030677;28;20480;-58
2023/07/10 03:56:34;;;;;;;41.25;36.97;;;19.70;99.90;;;;;;5030478;28;20041;-58
2023/07/10 03:58:59;;;;;;;40.42;35.95;;;19.60;99.90;;;;;;5030746;28;20048;-58
2023/07/10 04:01:25;;;;;;;41.47;36.88;;;19.60;99.90;;;;;;5030337;28;20491;-57
2023/07/10 04:03:51;;;;;;;41.33;36.85;;;20.20;99.90;;;;;;5030423;28;20060;-58
2023/07/10 04:06:17;;;;;;;40.38;36.10;;;19.70;99.90;;;;;;5030365;28;20041;-58
2023/07/10 04:08:44;;;;;;;40.42;36.20;;;19.70;99.90;;;;;;5030487;28;20121;-58
2023/07/10 04:11:17;;;;;;;41.30;36.00;;;20.10;99.90;;;;;;5025481;28;20127;-58
2023/07/10 04:13:43;;;;;;;40.38;36.42;;;20.20;99.90;;;;;;5030234;28;20041;-58
2023/07/10 04:16:21;;;;;;;39.88;35.88;;;20.30;99.90;;;;;;5030141;28;20420;-58
2023/07/10 04:18:49;;;;;;;39.15;35.33;;;19.90;99.90;;;;;;5030422;28;20128;-58
2023/07/10 04:21:19;;;;;;;39.22;35.17;;;19.90;99.90;;;;;;5029715;28;20558;-58
2023/07/10 04:23:45;;;;;;;39.45;33.78;;;20.40;99.90;;;;;;5029896;28;20128;-58
2023/07/10 04:26:22;;;;;;;38.90;34.03;;;19.90;99.90;;;;;;5029968;28;20314;-58
2023/07/10 04:28:50;;;;;;;35.80;32.13;;;20.00;99.90;;;;;;5030145;28;20038;-60
2023/07/10 04:31:17;;;;;;;37.50;32.65;;;20.20;99.90;;;;;;5045223;28;20092;-58
2023/07/10 04:33:43;;;;;;;35.88;32.28;;;20.20;99.90;;;;;;5030010;28;20033;-58
2023/07/10 04:36:09;;;;;;;37.05;32.63;;;20.10;99.90;;;;;;5029898;28;20498;-58
2023/07/10 04:38:35;;;;;;;35.83;32.03;;;19.90;99.90;;;;;;5029859;28;20121;-58
2023/07/10 04:41:04;;;;;;;36.42;32.85;;;20.10;99.90;;;;;;5029783;28;20610;-58
2023/07/10 04:43:31;;;;;;;34.13;30.83;;;20.30;99.90;;;;;;5029589;28;20507;-58
2023/07/10 04:46:00;;;;;;;34.65;31.05;;;20.20;99.90;;;;;;5029731;28;20048;-58
2023/07/10 04:48:26;;;;;;;33.70;30.63;;;20.10;99.90;;;;;;5030006;28;20064;-58
2023/07/10 04:50:54;;;;;;;34.47;31.05;;;20.20;99.90;;;;;;5029710;28;20045;-58
2023/07/10 04:53:20;;;;;;;36.17;32.45;;;20.00;99.90;;;;;;5028877;28;20123;-58
2023/07/10 04:55:48;;;;;;;34.97;31.42;;;20.50;99.90;;;;;;5029547;28;20125;-58
2023/07/10 04:58:14;;;;;;;35.30;31.98;;;20.30;99.90;;;;;;5029943;28;20131;-58
2023/07/10 05:00:39;;;;;;;35.00;31.60;;;20.00;99.90;;;;;;5030068;28;20120;-58
2023/07/10 05:03:06;;;;;;;36.95;33.25;;;20.40;99.90;;;;;;5028572;28;20057;-58
2023/07/10 05:05:32;;;;;;;38.28;34.42;;;20.20;99.90;;;;;;5029573;28;20046;-58
2023/07/10 05:07:58;;;;;;;37.00;33.38;;;20.00;99.90;;;;;;5029672;28;20041;-58
2023/07/10 05:10:24;;;;;;;39.83;35.63;;;20.00;99.90;;;;;;5029449;28;20033;-58
2023/07/10 05:12:50;;;;;;;37.13;33.50;;;20.30;99.90;;;;;;5029504;28;20075;-58
2023/07/10 05:15:16;;;;;;;37.05;33.45;;;20.30;99.90;;;;;;5029661;28;20471;-58
2023/07/10 05:17:41;;;;;;;37.15;33.47;;;20.30;99.90;;;;;;5029572;28;20091;-57
2023/07/10 05:20:08;;;;;;;37.13;33.38;;;20.10;99.90;;;;;;5029710;28;20041;-58
2023/07/10 05:22:35;;;;;;;39.08;35.28;;;20.40;99.90;;;;;;5029220;28;20048;-58
2023/07/10 05:25:00;;;;;;;37.95;34.20;;;20.10;99.90;;;;;;5028186;28;20049;-58
2023/07/10 05:27:26;;;;;;;37.40;33.83;;;20.40;99.90;;;;;;5016776;28;20046;-59
2023/07/10 05:29:51;;;;;;;37.20;33.40;;;20.50;99.90;;;;;;5009662;28;20037;-58
2023/07/10 05:32:17;;;;;;;35.67;31.90;;;20.40;99.90;;;;;;5022971;28;20123;-58
2023/07/10 05:34:42;;;;;;;37.30;33.42;;;20.70;99.90;;;;;;5032599;28;20090;-58
2023/07/10 05:37:08;;;;;;;37.28;33.20;;;20.40;99.90;;;;;;5048254;28;20037;-57
2023/07/10 05:39:34;;;;;;;35.60;31.88;;;20.60;99.90;;;;;;5033033;28;20095;-58
2023/07/10 05:41:59;;;;;;;37.13;33.28;;;20.60;99.90;;;;;;5032463;28;20049;-58
2023/07/10 05:44:26;;;;;;;37.00;33.08;;;20.80;99.90;;;;;;5032901;28;20119;-58
2023/07/10 05:46:51;;;;;;;37.60;33.67;;;20.60;99.90;;;;;;5032772;28;20550;-58
2023/07/10 05:49:18;;;;;;;37.35;33.08;;;20.80;99.90;;;;;;5032977;28;20042;-58
2023/07/10 05:51:43;;;;;;;37.42;33.17;;;20.80;99.90;;;;;;5032737;28;20503;-58
2023/07/10 05:54:09;;;;;;;36.78;32.80;;;20.70;99.90;;;;;;5032440;28;20056;-58
2023/07/10 05:56:35;;;;;;;35.88;32.20;;;20.60;99.90;;;;;;5032537;28;20041;-57
2023/07/10 05:59:01;;;;;;;38.13;34.05;;;20.70;99.90;;;;;;5064458;28;20515;-58
2023/07/10 06:01:27;;;;;;;39.78;34.80;;;20.70;99.90;;;;;;5032703;28;20033;-58
2023/07/10 06:03:53;;;;;;;41.80;34.30;;;20.70;99.90;;;;;;5047805;28;20385;-58
2023/07/10 06:06:19;;;;;;;39.35;34.90;;;20.80;99.90;;;;;;5032371;28;20048;-57
2023/07/10 06:08:44;;;;;;;38.70;34.75;;;21.10;99.90;;;;;;5048084;28;20053;-58
2023/07/10 06:11:10;;;;;;;38.97;34.75;;;20.90;99.90;;;;;;5032133;28;20037;-58
2023/07/10 06:13:36;;;;;;;40.60;36.13;;;21.10;99.90;;;;;;5032629;28;20057;-58
2023/07/10 06:16:05;;;;;;;39.42;35.30;;;21.40;99.90;;;;;;5032427;28;20514;-58
2023/07/10 06:18:31;;;;;;;40.10;35.20;;;21.10;99.90;;;;;;5022892;28;20051;-58
2023/07/10 06:20:58;;;;;;;40.53;36.03;;;21.30;99.90;;;;;;5037451;28;20044;-59
2023/07/10 06:23:27;;;;;;;47.08;35.85;;;21.10;99.90;;;;;;5030063;28;20080;-58
2023/07/10 06:25:53;;;;;;;38.80;34.70;;;21.40;99.90;;;;;;5031066;28;20044;-58
2023/07/10 06:28:20;;;;;;;42.78;35.10;;;21.20;99.90;;;;;;5016939;28;20037;-59
2023/07/10 06:31:01;;;;;;;40.22;35.95;;;21.10;99.90;;;;;;5023790;28;20606;-58
2023/07/10 06:33:28;;;;;;;39.80;35.40;;;21.50;99.90;;;;;;5027173;28;20041;-59
2023/07/10 06:35:54;;;;;;;39.83;35.45;;;21.40;99.90;;;;;;5029111;28;20056;-58
2023/07/10 06:38:21;;;;;;;46.08;37.03;;;21.20;99.90;;;;;;5043848;28;20460;-58
2023/07/10 06:40:48;;;;;;;46.50;36.60;;;21.30;99.90;;;;;;5040671;28;20399;-58
2023/07/10 06:43:13;;;;;;;41.78;36.35;;;21.30;99.90;;;;;;5027110;28;20668;-58
2023/07/10 06:45:39;;;;;;;42.88;35.53;;;21.60;99.90;;;;;;5014997;28;20069;-58
2023/07/10 06:48:06;;;;;;;45.85;35.92;;;21.70;99.90;;;;;;5015912;28;20608;-57
2023/07/10 06:50:31;;;;;;;40.85;35.42;;;21.70;99.90;;;;;;5021152;28;20041;-59
2023/07/10 06:52:57;;;;;;;42.03;36.22;;;21.90;99.90;;;;;;5020908;28;20037;-59
2023/07/10 06:55:23;;;;;;;42.65;36.45;;;21.50;99.90;;;;;;5031238;28;20045;-58
2023/07/10 06:57:48;;;;;;;47.85;36.72;;;21.90;99.90;;;;;;5026571;28;20041;-58
2023/07/10 07:00:17;;;;;;;40.47;35.60;;;21.70;99.90;;;;;;5016806;28;20086;-59
2023/07/10 07:02:42;;;;;;;38.85;34.90;;;22.10;99.90;;;;;;5027105;28;20118;-59
2023/07/10 07:05:09;;;;;;;41.25;33.60;;;21.90;99.90;;;;;;5027711;28;20048;-59
2023/07/10 07:07:36;;;;;;;41.85;33.17;;;22.30;99.90;;;;;;5026377;28;20091;-58
2023/07/10 07:10:01;;;;;;;43.25;34.03;;;22.40;99.90;;;;;;5031326;28;20044;-58
2023/07/10 07:12:27;;;;;;;44.28;35.00;;;22.50;99.90;;;;;;5027265;28;20503;-59
2023/07/10 07:14:53;;;;;;;37.78;33.38;;;22.40;99.90;;;;;;5027040;28;20495;-59
2023/07/10 07:17:18;;;;;;;38.65;33.80;;;22.50;99.90;;;;;;5044454;28;20060;-59
2023/07/10 07:19:46;;;;;;;45.08;35.90;;;22.50;99.90;;;;;;5023905;28;20515;-59
2023/07/10 07:22:12;;;;;;;38.78;34.58;;;22.50;99.90;;;;;;5030148;28;20117;-58
2023/07/10 07:24:38;;;;;;;41.38;34.08;;;22.60;99.90;;;;;;5018906;28;20030;-59
2023/07/10 07:27:04;;;;;;;42.75;35.40;;;23.00;99.90;;;;;;5026235;28;20048;-59
2023/07/10 07:29:29;;;;;;;45.63;35.47;;;22.90;99.90;;;;;;5041391;28;20077;-59
2023/07/10 07:31:55;;;;;;;42.75;34.67;;;23.20;1.00;;;;;;5015066;28;20119;-59
2023/07/10 07:34:21;;;;;;;41.15;34.03;;;23.10;1.00;;;;;;5020831;28;20048;-59
2023/07/10 07:36:51;;;;;;;43.88;35.42;;;23.20;99.90;;;;;;5025241;28;20057;-59
2023/07/10 07:39:18;;;;;;;38.08;34.00;;;23.20;99.90;;;;;;5018185;28;20072;-59
2023/07/10 07:41:43;;;;;;;42.60;34.88;;;23.40;99.90;;;;;;5020022;28;20094;-58
2023/07/10 07:44:09;;;;;;;40.85;34.40;;;23.40;1.00;;;;;;5043748;28;20049;-59
2023/07/10 07:46:35;;;;;;;39.20;34.90;;;23.60;99.90;;;;;;5020333;28;20400;-59
2023/07/10 07:49:00;;;;;;;39.92;34.10;;;23.60;1.00;;;;;;5028647;28;20045;-59
2023/07/10 07:51:26;;;;;;;39.15;33.95;;;23.50;1.00;;;;;;5025504;28;20491;-58
2023/07/10 07:54:12;;;;;;;43.90;34.90;;;23.60;95.50;;;;;;5030583;28;20064;-58
2023/07/10 07:56:38;;;;;;;41.75;36.08;;;23.60;99.90;;;;;;5027653;28;20448;-58
2023/07/10 07:59:04;;;;;;;39.53;34.78;;;23.90;99.90;;;;;;5023713;28;20042;-58
2023/07/10 08:01:29;;;;;;;42.67;36.22;;;23.70;1.00;;;;;;5020758;28;20033;-58
2023/07/10 08:03:56;;;;;;;44.22;36.20;;;23.90;1.00;;;;;;5018487;28;20860;-58
2023/07/10 08:06:26;;;;;;;44.90;35.90;;;24.00;99.90;;;;;;5028941;28;20045;-58
2023/07/10 08:08:54;;;;;;;41.13;36.50;;;24.20;99.90;;;;;;5022521;28;20511;-59
2023/07/10 08:11:20;;;;;;;40.40;35.05;;;23.90;1.00;;;;;;5030867;28;20293;-58
2023/07/10 08:13:48;;;;;;;43.40;34.90;;;24.20;1.00;;;;;;5059809;28;20071;-58
2023/07/10 08:16:14;;;;;;;40.30;35.53;;;24.20;99.90;;;;;;5027752;28;20128;-58
2023/07/10 08:18:45;;;;;;;44.88;36.42;;;24.20;99.90;;;;;;5019622;28;20128;-59
2023/07/10 08:21:13;;;;;;;41.03;36.65;;;24.20;73.10;;;;;;5026127;28;20068;-59
2023/07/10 08:23:39;;;;;;;42.35;36.40;;;24.30;59.40;;;;;;5020607;28;20042;-59
2023/07/10 08:26:06;;;;;;;47.25;37.85;;;24.20;1.00;;;;;;5027285;28;20041;-59
2023/07/10 08:28:31;;;;;;;43.70;35.30;;;23.90;99.90;;;;;;5028266;28;20191;-59
2023/07/10 08:30:58;;;;;;;41.20;36.72;;;24.00;1.00;;;;;;5010260;28;20112;-59
2023/07/10 08:33:24;;;;;;;39.78;35.47;;;24.00;1.00;;;;;;5044335;28;20037;-58
2023/07/10 08:35:59;;;;;;;43.60;37.00;;;23.70;99.90;;;;;;5059476;28;20562;-59
2023/07/10 08:38:26;;;;;;;43.35;37.08;;;23.50;99.90;;;;;;5030189;28;20048;-58
2023/07/10 08:40:55;;;;;;;44.13;36.45;;;23.50;99.90;;;;;;5028395;28;20086;-59
2023/07/10 08:43:37;;;;;;;42.53;37.70;;;23.60;99.90;;;;;;5024829;28;20064;-58
2023/07/10 08:46:15;;;;;;;44.25;37.15;;;23.70;1.00;;;;;;5027921;28;20042;-59
2023/07/10 08:49:09;;;;;;;42.05;34.00;;;23.80;1.00;;;;;;5025983;28;20048;-59
2023/07/10 08:51:52;;;;;;;41.72;34.67;;;23.80;1.00;;;;;;5027875;28;20061;-58
2023/07/10 08:54:18;;;;;;;42.08;36.05;;;24.20;1.00;;;;;;5021969;28;20030;-59
2023/07/10 08:56:55;;;;;;;35.15;31.33;;;24.50;1.00;;;;;;5028037;28;20491;-58
2023/07/10 08:59:41;;;;;;;37.47;33.28;;;24.70;99.90;;;;;;5028926;28;20037;-59
2023/07/10 09:02:31;;;;;;;35.47;31.10;;;24.90;99.90;;;;;;5036547;28;20456;-59
2023/07/10 09:04:58;;;;;;;35.55;30.83;;;24.90;8.50;;;;;;5029023;28;20045;-59
2023/07/10 09:07:33;;;;;;;40.13;30.25;;;25.00;94.20;;;;;;5046390;28;20393;-59
2023/07/10 09:10:03;;;;;;;36.50;29.73;;;25.00;1.00;;;;;;5030246;28;20048;-59
2023/07/10 09:12:41;;;;;;;30.90;26.70;;;25.00;1.00;;;;;;5031227;28;20045;-58
2023/07/10 09:15:21;;;;;;;36.83;30.40;;;25.00;99.90;;;;;;5012558;28;20084;-59
2023/07/10 09:17:48;;;;;;;30.40;27.05;;;25.30;99.90;;;;;;5025980;28;20037;-59
2023/07/10 09:20:15;;;;;;;30.40;25.85;;;25.40;99.90;;;;;;5032836;28;20439;-59
2023/07/10 09:23:02;;;;;;;36.30;25.95;;;25.50;99.90;;;;;;5049144;28;20045;-59
2023/07/10 09:25:33;;;;;;;32.78;27.65;;;25.80;14.50;;;;;;5031584;28;20099;-59
2023/07/10 09:28:00;;;;;;;34.72;29.17;;;25.60;1.00;;;;;;5050270;28;20049;-58
2023/07/10 09:30:29;;;;;;;33.50;28.02;;;25.70;1.00;;;;;;5033359;28;20539;-59
2023/07/10 09:33:08;;;;;;;31.70;26.58;;;25.80;1.00;;;;;;5033486;28;20396;-59
2023/07/10 09:35:41;;;;;;;35.90;30.00;;;25.80;99.90;;;;;;5041117;28;20076;-59
2023/07/10 09:38:11;;;;;;;29.63;26.48;;;25.80;1.00;;;;;;5033168;28;20048;-58
2023/07/10 09:40:45;;;;;;;35.13;31.45;;;25.80;99.90;;;;;;5033567;28;20046;-59
2023/07/10 09:43:19;;;;;;;30.63;26.27;;;25.80;99.90;;;;;;5029477;28;20057;-59
2023/07/10 09:45:49;;;;;;;33.00;28.75;;;25.80;99.90;;;;;;5030205;28;20033;-59
2023/07/10 09:48:30;;;;;;;28.85;26.02;;;25.50;99.90;;;;;;5030970;28;20647;-63
2023/07/10 09:50:58;;;;;;;36.10;32.60;;;25.20;99.90;;;;;;5029578;28;20098;-63
2023/07/10 09:53:32;;;;;;;32.33;28.92;;;25.10;99.90;;;;;;5015190;28;20049;-63
2023/07/10 09:55:58;;;;;;;33.65;29.88;;;24.90;99.90;;;;;;5019512;28;20128;-63
2023/07/10 09:58:24;;;;;;;31.35;28.20;;;24.70;99.90;;;;;;5015618;28;20041;-63
2023/07/10 10:00:50;;;;;;;30.33;27.23;;;24.60;99.90;;;;;;5043857;28;20098;-63
2023/07/10 10:03:41;;;;;;;33.00;28.95;;;24.30;99.90;;;;;;5034734;28;20124;-63
2023/07/10 10:06:21;;;;;;;31.75;28.65;;;24.50;99.90;;;;;;5012579;28;20073;-64
2023/07/10 10:08:48;;;;;;;30.13;24.40;;;24.70;99.90;;;;;;5028182;28;20060;-63
2023/07/10 10:11:16;;;;;;;27.85;24.15;;;24.90;99.90;;;;;;5023379;28;20041;-63
2023/07/10 10:13:41;;;;;;;24.17;21.35;;;24.80;99.90;;;;;;5044123;28;21427;-63
2023/07/10 10:16:34;;;;;;;24.90;22.35;;;24.70;99.90;;;;;;5036369;28;20072;-63
2023/07/10 10:19:17;;;;;;;27.88;25.08;;;24.90;99.90;;;;;;5024356;28;20115;-63
2023/07/10 10:21:43;;;;;;;26.02;23.27;;;25.10;99.90;;;;;;5044467;28;20046;-63
2023/07/10 10:24:12;;;;;;;24.50;21.55;;;25.20;99.90;;;;;;5022515;28;20105;-63
2023/07/10 10:27:03;;;;;;;28.98;23.70;;;25.40;98.60;;;;;;5029398;28;20119;-64
2023/07/10 10:29:43;;;;;;;27.92;22.70;;;25.40;67.60;;;;;;5059472;28;20503;-63
2023/07/10 10:32:31;;;;;;;29.17;25.38;;;25.40;52.40;;;;;;5019621;28;20049;-63
2023/07/10 10:35:15;;;;;;;28.75;25.88;;;25.40;9.20;;;;;;5031537;28;20041;-63
2023/07/10 10:38:04;;;;;;;34.78;27.17;;;24.70;1.00;;;;;;5017789;28;20073;-63
2023/07/10 10:40:36;;;;;;;31.65;26.88;;;24.70;27.00;;;;;;5024913;28;20100;-63
2023/07/10 10:43:25;;;;;;;28.25;25.42;;;24.70;82.70;;;;;;5033560;28;20061;-63
2023/07/10 10:46:13;;;;;;;30.75;27.70;;;24.40;1.00;;;;;;5021970;28;20041;-63
2023/07/10 10:49:15;;;;;;;30.67;26.70;;;24.00;1.00;;;;;;5038573;28;20112;-63
2023/07/10 10:51:55;;;;;;;26.27;23.65;;;24.00;59.40;;;;;;5054219;28;20038;-63
2023/07/10 10:54:45;;;;;;;23.77;21.73;;;24.20;99.90;;;;;;5015382;28;20038;-64
2023/07/10 10:57:59;;;;;;;26.88;24.30;;;24.10;1.00;;;;;;5023915;28;20658;-63
2023/07/10 11:00:43;;;;;;;25.27;22.65;;;24.30;26.50;;;;;;5016538;28;20046;-63
2023/07/10 11:03:20;;;;;;;22.90;19.42;;;24.50;67.10;;;;;;5022592;28;20524;-64
2023/07/10 11:06:07;;;;;;;20.63;18.52;;;24.30;1.00;;;;;;5031834;28;20041;-64
2023/07/10 11:08:40;;;;;;;23.13;20.70;;;24.30;1.00;;;;;;5020951;28;20128;-64
2023/07/10 11:11:34;;;;;;;21.00;18.77;;;24.40;1.00;;;;;;5051782;28;20948;-63
2023/07/10 11:14:04;;;;;;;22.75;19.77;;;24.20;1.00;;;;;;5015092;28;20042;-63
2023/07/10 11:16:32;;;;;;;30.95;26.75;;;24.10;1.00;;;;;;5062832;28;20030;-64
2023/07/10 11:18:59;;;;;;;26.02;20.65;;;24.50;90.40;;;;;;5031255;28;20033;-63
2023/07/10 11:21:26;;;;;;;26.08;19.02;;;25.70;47.00;;;;;;5020101;28;20098;-63
2023/07/10 11:23:52;;;;;;;25.17;20.67;;;25.10;1.00;;;;;;5031056;28;20048;-63
2023/07/10 11:26:24;;;;;;;24.20;17.23;;;25.30;30.40;;;;;;5037489;28;20049;-64
2023/07/10 11:29:16;;;;;;;21.60;15.52;;;25.40;1.00;;;;;;5026888;28;20434;-64
2023/07/10 11:31:42;;;;;;;21.85;16.67;;;25.40;1.00;;;;;;5042378;28;20041;-63
2023/07/10 11:34:08;;;;;;;17.05;14.82;;;25.20;1.00;;;;;;5048803;28;20602;-64
2023/07/10 11:36:37;;;;;;;17.63;15.85;;;25.30;1.00;;;;;;5027506;28;20037;-63
2023/07/10 11:39:07;;;;;;;13.73;10.15;;;25.30;99.90;;;;;;5041357;28;20128;-64
2023/07/10 11:41:47;;;;;;;17.35;10.25;;;25.30;99.90;;;;;;5023505;28;20042;-63
2023/07/10 11:44:20;;;;;;;17.02;13.73;;;25.20;99.90;;;;;;5023709;28;20053;-63
2023/07/10 11:47:05;;;;;;;17.08;13.15;;;25.20;99.90;;;;;;5023682;28;20504;-64
2023/07/10 11:49:51;;;;;;;20.23;11.07;;;25.30;99.90;;;;;;5017871;28;20038;-63
2023/07/10 11:52:16;;;;;;;13.90;10.65;;;25.30;99.90;;;;;;5038488;28;20095;-64
2023/07/10 11:55:01;;;;;;;19.75;10.73;;;25.20;99.90;;;;;;5030354;28;20073;-63
2023/07/10 11:57:29;;;;;;;16.98;12.10;;;25.10;99.90;;;;;;5025100;28;20100;-63
2023/07/10 12:00:03;;;;;;;14.88;9.95;;;25.10;99.90;;;;;;5022325;28;20407;-64
2023/07/10 12:02:32;;;;;;;16.85;9.93;;;25.00;99.90;;;;;;5028506;28;20128;-64
2023/07/10 12:05:31;;;;;;;11.52;9.43;;;25.00;99.90;;;;;;5016681;28;20373;-63
2023/07/10 12:08:10;;;;;;;11.27;9.68;;;24.80;99.90;;;;;;5030410;28;20100;-63
2023/07/10 12:10:48;;;;;;;11.65;9.05;;;24.90;99.90;;;;;;5018738;28;20038;-64
2023/07/10 12:13:31;;;;;;;11.07;9.13;;;24.90;99.90;;;;;;5018333;28;20037;-64
2023/07/10 12:16:11;;;;;;;8.23;5.57;;;24.90;99.90;;;;;;5029617;28;20122;-63
2023/07/10 12:18:39;;;;;;;12.30;11.23;;;24.70;1.00;;;;;;5010949;28;20750;-64
2023/07/10 12:21:17;;;;;;;4.45;1.92;;;24.70;1.00;;;;;;5029736;28;20040;-64
2023/07/10 12:24:00;;;;;;;9.30;2.30;;;24.60;1.00;;;;;;5029748;28;20037;-63
2023/07/10 12:26:28;;;;;;;13.18;2.40;;;24.60;1.00;;;;;;5022433;28;20037;-64
2023/07/10 12:28:55;;;;;;;8.35;2.33;;;24.60;1.00;;;;;;5014274;28;20026;-64
2023/07/10 12:31:21;;;;;;;9.95;2.50;;;24.40;1.00;;;;;;5035129;28;20057;-64
2023/07/10 12:33:51;;;;;;;6.55;2.20;;;24.40;1.00;;;;;;5012698;28;20464;-63
2023/07/10 12:36:27;;;;;;;7.63;2.28;;;24.40;1.00;;;;;;5021894;28;20127;-63
2023/07/10 12:38:58;;;;;;;9.05;2.63;;;24.30;1.00;;;;;;5029286;28;20072;-64
2023/07/10 12:41:25;;;;;;;8.88;2.67;;;24.20;1.00;;;;;;5021614;28;20116;-63